sensor_id;sensor_type;location;lat;lon;timestamp;P1;durP1;ratioP1;P2;durP2;ratioP2
31130;SDS011;20292;50.944;4.034;2022-07-10T00:02:11;10.82;;;3.15;;
31130;SDS011;20292;50.944;4.034;2022-07-10T00:04:36;11.18;;;3.58;;
31130;SDS011;20292;50.944;4.034;2022-07-10T00:07:02;11.98;;;3.60;;
31130;SDS011;20292;50.944;4.034;2022-07-10T00:09:29;8.18;;;3.47;;
31130;SDS011;20292;50.944;4.034;2022-07-10T00:11:54;10.02;;;3.33;;
31130;SDS011;20292;50.944;4.034;2022-07-10T00:14:20;7.15;;;2.90;;
31130;SDS011;20292;50.944;4.034;2022-07-10T00:16:46;17.10;;;3.22;;
31130;SDS011;20292;50.944;4.034;2022-07-10T00:19:12;12.80;;;3.53;;
31130;SDS011;20292;50.944;4.034;2022-07-10T00:21:38;12.07;;;3.22;;
31130;SDS011;20292;50.944;4.034;2022-07-10T00:24:03;9.32;;;3.10;;
31130;SDS011;20292;50.944;4.034;2022-07-10T00:26:29;9.27;;;3.30;;
31130;SDS011;20292;50.944;4.034;2022-07-10T00:28:55;9.93;;;3.47;;
31130;SDS011;20292;50.944;4.034;2022-07-10T00:31:21;7.25;;;2.92;;
31130;SDS011;20292;50.944;4.034;2022-07-10T00:33:47;6.00;;;3.70;;
31130;SDS011;20292;50.944;4.034;2022-07-10T00:36:13;7.28;;;3.35;;
31130;SDS011;20292;50.944;4.034;2022-07-10T00:38:39;9.13;;;3.03;;
31130;SDS011;20292;50.944;4.034;2022-07-10T00:41:05;11.10;;;3.45;;
31130;SDS011;20292;50.944;4.034;2022-07-10T00:43:50;9.43;;;3.42;;
31130;SDS011;20292;50.944;4.034;2022-07-10T00:46:16;8.02;;;3.60;;
31130;SDS011;20292;50.944;4.034;2022-07-10T00:48:45;9.05;;;3.55;;
31130;SDS011;20292;50.944;4.034;2022-07-10T00:51:11;9.52;;;3.20;;
31130;SDS011;20292;50.944;4.034;2022-07-10T00:53:37;10.40;;;3.55;;
31130;SDS011;20292;50.944;4.034;2022-07-10T00:56:03;10.00;;;3.40;;
31130;SDS011;20292;50.944;4.034;2022-07-10T00:58:30;11.38;;;3.55;;
31130;SDS011;20292;50.944;4.034;2022-07-10T01:00:56;10.48;;;3.58;;
31130;SDS011;20292;50.944;4.034;2022-07-10T01:03:22;13.30;;;3.70;;
31130;SDS011;20292;50.944;4.034;2022-07-10T01:05:47;12.68;;;4.13;;
31130;SDS011;20292;50.944;4.034;2022-07-10T01:08:13;10.95;;;3.58;;
31130;SDS011;20292;50.944;4.034;2022-07-10T01:10:38;7.85;;;3.38;;
31130;SDS011;20292;50.944;4.034;2022-07-10T01:13:04;6.43;;;3.47;;
31130;SDS011;20292;50.944;4.034;2022-07-10T01:15:31;9.27;;;3.17;;
31130;SDS011;20292;50.944;4.034;2022-07-10T01:17:58;9.55;;;3.25;;
31130;SDS011;20292;50.944;4.034;2022-07-10T01:20:29;9.40;;;3.40;;
31130;SDS011;20292;50.944;4.034;2022-07-10T01:22:58;8.48;;;3.25;;
31130;SDS011;20292;50.944;4.034;2022-07-10T01:25:24;7.68;;;3.38;;
31130;SDS011;20292;50.944;4.034;2022-07-10T01:27:50;9.35;;;3.50;;
31130;SDS011;20292;50.944;4.034;2022-07-10T01:30:16;11.85;;;3.35;;
31130;SDS011;20292;50.944;4.034;2022-07-10T01:32:44;9.32;;;3.10;;
31130;SDS011;20292;50.944;4.034;2022-07-10T01:35:10;10.05;;;3.03;;
31130;SDS011;20292;50.944;4.034;2022-07-10T01:37:36;9.50;;;3.03;;
31130;SDS011;20292;50.944;4.034;2022-07-10T01:40:02;9.52;;;3.67;;
31130;SDS011;20292;50.944;4.034;2022-07-10T01:42:28;9.23;;;3.35;;
31130;SDS011;20292;50.944;4.034;2022-07-10T01:44:54;9.43;;;3.35;;
31130;SDS011;20292;50.944;4.034;2022-07-10T01:47:20;9.95;;;3.33;;
31130;SDS011;20292;50.944;4.034;2022-07-10T01:49:49;8.60;;;3.90;;
31130;SDS011;20292;50.944;4.034;2022-07-10T01:52:16;6.55;;;3.22;;
31130;SDS011;20292;50.944;4.034;2022-07-10T01:54:42;8.35;;;3.70;;
31130;SDS011;20292;50.944;4.034;2022-07-10T01:57:07;9.05;;;3.45;;
31130;SDS011;20292;50.944;4.034;2022-07-10T01:59:33;7.88;;;2.97;;
31130;SDS011;20292;50.944;4.034;2022-07-10T02:01:58;9.10;;;3.53;;
31130;SDS011;20292;50.944;4.034;2022-07-10T02:04:24;10.45;;;3.63;;
31130;SDS011;20292;50.944;4.034;2022-07-10T02:07:11;12.02;;;3.80;;
31130;SDS011;20292;50.944;4.034;2022-07-10T02:09:41;8.23;;;3.63;;
31130;SDS011;20292;50.944;4.034;2022-07-10T02:12:12;8.20;;;3.65;;
31130;SDS011;20292;50.944;4.034;2022-07-10T02:14:38;9.85;;;3.40;;
31130;SDS011;20292;50.944;4.034;2022-07-10T02:17:05;12.55;;;3.85;;
31130;SDS011;20292;50.944;4.034;2022-07-10T02:19:31;9.38;;;3.63;;
31130;SDS011;20292;50.944;4.034;2022-07-10T02:21:57;9.50;;;3.47;;
31130;SDS011;20292;50.944;4.034;2022-07-10T02:24:23;6.43;;;3.47;;
31130;SDS011;20292;50.944;4.034;2022-07-10T02:26:49;12.43;;;3.70;;
31130;SDS011;20292;50.944;4.034;2022-07-10T02:29:15;9.02;;;3.17;;
31130;SDS011;20292;50.944;4.034;2022-07-10T02:31:42;10.20;;;3.67;;
31130;SDS011;20292;50.944;4.034;2022-07-10T02:34:08;9.30;;;3.30;;
31130;SDS011;20292;50.944;4.034;2022-07-10T02:36:37;12.07;;;3.42;;
31130;SDS011;20292;50.944;4.034;2022-07-10T02:39:04;9.57;;;3.72;;
31130;SDS011;20292;50.944;4.034;2022-07-10T02:41:30;9.57;;;3.72;;
31130;SDS011;20292;50.944;4.034;2022-07-10T02:43:56;9.80;;;3.30;;
31130;SDS011;20292;50.944;4.034;2022-07-10T02:46:21;8.43;;;3.50;;
31130;SDS011;20292;50.944;4.034;2022-07-10T02:48:47;7.40;;;3.47;;
31130;SDS011;20292;50.944;4.034;2022-07-10T02:51:13;8.43;;;3.85;;
31130;SDS011;20292;50.944;4.034;2022-07-10T02:53:39;7.88;;;3.78;;
31130;SDS011;20292;50.944;4.034;2022-07-10T02:56:04;11.52;;;4.13;;
31130;SDS011;20292;50.944;4.034;2022-07-10T02:58:30;10.77;;;4.03;;
31130;SDS011;20292;50.944;4.034;2022-07-10T03:00:56;8.15;;;3.72;;
31130;SDS011;20292;50.944;4.034;2022-07-10T03:03:22;11.73;;;4.38;;
31130;SDS011;20292;50.944;4.034;2022-07-10T03:05:48;8.00;;;3.90;;
31130;SDS011;20292;50.944;4.034;2022-07-10T03:08:13;8.30;;;3.60;;
31130;SDS011;20292;50.944;4.034;2022-07-10T03:10:39;7.40;;;3.85;;
31130;SDS011;20292;50.944;4.034;2022-07-10T03:13:05;12.80;;;4.10;;
31130;SDS011;20292;50.944;4.034;2022-07-10T03:15:31;10.55;;;4.07;;
31130;SDS011;20292;50.944;4.034;2022-07-10T03:17:57;10.70;;;4.07;;
31130;SDS011;20292;50.944;4.034;2022-07-10T03:20:23;9.73;;;4.10;;
31130;SDS011;20292;50.944;4.034;2022-07-10T03:22:49;9.75;;;4.00;;
31130;SDS011;20292;50.944;4.034;2022-07-10T03:25:14;11.80;;;4.07;;
31130;SDS011;20292;50.944;4.034;2022-07-10T03:27:40;8.02;;;3.70;;
31130;SDS011;20292;50.944;4.034;2022-07-10T03:30:06;8.52;;;3.60;;
31130;SDS011;20292;50.944;4.034;2022-07-10T03:32:32;10.00;;;3.70;;
31130;SDS011;20292;50.944;4.034;2022-07-10T03:34:58;9.82;;;3.55;;
31130;SDS011;20292;50.944;4.034;2022-07-10T03:37:24;9.63;;;3.88;;
31130;SDS011;20292;50.944;4.034;2022-07-10T03:39:49;9.68;;;3.70;;
31130;SDS011;20292;50.944;4.034;2022-07-10T03:42:15;6.93;;;3.45;;
31130;SDS011;20292;50.944;4.034;2022-07-10T03:44:40;8.18;;;3.80;;
31130;SDS011;20292;50.944;4.034;2022-07-10T03:47:06;6.47;;;3.30;;
31130;SDS011;20292;50.944;4.034;2022-07-10T03:49:32;7.70;;;3.70;;
31130;SDS011;20292;50.944;4.034;2022-07-10T03:52:01;10.63;;;4.05;;
31130;SDS011;20292;50.944;4.034;2022-07-10T03:54:28;8.10;;;3.38;;
31130;SDS011;20292;50.944;4.034;2022-07-10T03:56:55;11.50;;;3.58;;
31130;SDS011;20292;50.944;4.034;2022-07-10T03:59:39;11.10;;;3.70;;
31130;SDS011;20292;50.944;4.034;2022-07-10T04:02:05;9.93;;;3.30;;
31130;SDS011;20292;50.944;4.034;2022-07-10T04:04:31;9.85;;;3.65;;
31130;SDS011;20292;50.944;4.034;2022-07-10T04:06:57;6.55;;;3.03;;
31130;SDS011;20292;50.944;4.034;2022-07-10T04:09:23;6.57;;;3.15;;
31130;SDS011;20292;50.944;4.034;2022-07-10T04:11:49;6.53;;;3.05;;
31130;SDS011;20292;50.944;4.034;2022-07-10T04:14:15;7.78;;;3.13;;
31130;SDS011;20292;50.944;4.034;2022-07-10T04:16:40;5.18;;;3.22;;
31130;SDS011;20292;50.944;4.034;2022-07-10T04:19:06;4.18;;;3.40;;
31130;SDS011;20292;50.944;4.034;2022-07-10T04:21:32;6.93;;;3.30;;
31130;SDS011;20292;50.944;4.034;2022-07-10T04:23:57;7.88;;;3.17;;
31130;SDS011;20292;50.944;4.034;2022-07-10T04:26:23;10.35;;;4.10;;
31130;SDS011;20292;50.944;4.034;2022-07-10T04:28:49;7.25;;;2.92;;
31130;SDS011;20292;50.944;4.034;2022-07-10T04:31:14;9.18;;;3.20;;
31130;SDS011;20292;50.944;4.034;2022-07-10T04:33:40;7.15;;;3.33;;
31130;SDS011;20292;50.944;4.034;2022-07-10T04:36:05;8.80;;;3.25;;
31130;SDS011;20292;50.944;4.034;2022-07-10T04:38:31;5.47;;;2.60;;
31130;SDS011;20292;50.944;4.034;2022-07-10T04:40:57;7.47;;;2.80;;
31130;SDS011;20292;50.944;4.034;2022-07-10T04:43:23;6.55;;;2.38;;
31130;SDS011;20292;50.944;4.034;2022-07-10T04:45:49;5.60;;;2.28;;
31130;SDS011;20292;50.944;4.034;2022-07-10T04:48:14;6.88;;;2.72;;
31130;SDS011;20292;50.944;4.034;2022-07-10T04:50:40;5.95;;;2.28;;
31130;SDS011;20292;50.944;4.034;2022-07-10T04:53:05;6.35;;;2.35;;
31130;SDS011;20292;50.944;4.034;2022-07-10T04:55:31;6.72;;;2.40;;
31130;SDS011;20292;50.944;4.034;2022-07-10T04:57:57;4.43;;;1.92;;
31130;SDS011;20292;50.944;4.034;2022-07-10T05:00:23;6.95;;;2.65;;
31130;SDS011;20292;50.944;4.034;2022-07-10T05:02:48;5.50;;;2.30;;
31130;SDS011;20292;50.944;4.034;2022-07-10T05:05:14;8.18;;;2.15;;
31130;SDS011;20292;50.944;4.034;2022-07-10T05:07:40;6.70;;;2.65;;
31130;SDS011;20292;50.944;4.034;2022-07-10T05:10:05;5.32;;;2.58;;
31130;SDS011;20292;50.944;4.034;2022-07-10T05:12:31;3.60;;;2.33;;
31130;SDS011;20292;50.944;4.034;2022-07-10T05:14:57;5.75;;;2.95;;
31130;SDS011;20292;50.944;4.034;2022-07-10T05:17:24;5.10;;;3.03;;
31130;SDS011;20292;50.944;4.034;2022-07-10T05:19:51;7.43;;;2.58;;
31130;SDS011;20292;50.944;4.034;2022-07-10T05:22:18;11.15;;;3.33;;
31130;SDS011;20292;50.944;4.034;2022-07-10T05:24:44;6.60;;;2.35;;
31130;SDS011;20292;50.944;4.034;2022-07-10T05:27:10;8.50;;;2.90;;
31130;SDS011;20292;50.944;4.034;2022-07-10T05:29:35;5.70;;;2.65;;
31130;SDS011;20292;50.944;4.034;2022-07-10T05:32:01;6.18;;;2.60;;
31130;SDS011;20292;50.944;4.034;2022-07-10T05:34:27;5.82;;;2.47;;
31130;SDS011;20292;50.944;4.034;2022-07-10T05:36:52;6.20;;;2.63;;
31130;SDS011;20292;50.944;4.034;2022-07-10T05:39:18;6.60;;;2.50;;
31130;SDS011;20292;50.944;4.034;2022-07-10T05:41:43;7.60;;;2.65;;
31130;SDS011;20292;50.944;4.034;2022-07-10T05:44:09;4.85;;;2.80;;
31130;SDS011;20292;50.944;4.034;2022-07-10T05:46:35;6.20;;;2.40;;
31130;SDS011;20292;50.944;4.034;2022-07-10T05:49:00;7.70;;;2.72;;
31130;SDS011;20292;50.944;4.034;2022-07-10T05:51:26;4.35;;;2.22;;
31130;SDS011;20292;50.944;4.034;2022-07-10T05:53:52;7.32;;;2.40;;
31130;SDS011;20292;50.944;4.034;2022-07-10T05:56:17;4.13;;;2.25;;
31130;SDS011;20292;50.944;4.034;2022-07-10T05:58:43;8.38;;;2.50;;
31130;SDS011;20292;50.944;4.034;2022-07-10T06:01:09;5.97;;;2.17;;
31130;SDS011;20292;50.944;4.034;2022-07-10T06:03:34;7.03;;;2.45;;
31130;SDS011;20292;50.944;4.034;2022-07-10T06:06:00;7.78;;;2.67;;
31130;SDS011;20292;50.944;4.034;2022-07-10T06:08:26;6.15;;;2.20;;
31130;SDS011;20292;50.944;4.034;2022-07-10T06:10:51;7.68;;;2.25;;
31130;SDS011;20292;50.944;4.034;2022-07-10T06:13:17;8.48;;;2.20;;
31130;SDS011;20292;50.944;4.034;2022-07-10T06:15:43;4.63;;;2.08;;
31130;SDS011;20292;50.944;4.034;2022-07-10T06:18:08;6.78;;;2.25;;
31130;SDS011;20292;50.944;4.034;2022-07-10T06:20:34;4.95;;;2.20;;
31130;SDS011;20292;50.944;4.034;2022-07-10T06:23:00;7.72;;;2.40;;
31130;SDS011;20292;50.944;4.034;2022-07-10T06:25:25;6.75;;;2.10;;
31130;SDS011;20292;50.944;4.034;2022-07-10T06:27:51;5.80;;;2.20;;
31130;SDS011;20292;50.944;4.034;2022-07-10T06:30:16;8.05;;;2.28;;
31130;SDS011;20292;50.944;4.034;2022-07-10T06:32:42;4.53;;;2.10;;
31130;SDS011;20292;50.944;4.034;2022-07-10T06:35:09;4.95;;;1.92;;
31130;SDS011;20292;50.944;4.034;2022-07-10T06:37:35;6.13;;;1.90;;
31130;SDS011;20292;50.944;4.034;2022-07-10T06:40:01;4.97;;;1.90;;
31130;SDS011;20292;50.944;4.034;2022-07-10T06:42:27;8.95;;;2.10;;
31130;SDS011;20292;50.944;4.034;2022-07-10T06:44:52;5.57;;;1.80;;
31130;SDS011;20292;50.944;4.034;2022-07-10T06:47:18;5.47;;;2.00;;
31130;SDS011;20292;50.944;4.034;2022-07-10T06:50:03;3.67;;;1.80;;
31130;SDS011;20292;50.944;4.034;2022-07-10T06:52:31;6.80;;;1.85;;
31130;SDS011;20292;50.944;4.034;2022-07-10T06:55:00;4.35;;;2.00;;
31130;SDS011;20292;50.944;4.034;2022-07-10T06:57:27;4.93;;;1.80;;
31130;SDS011;20292;50.944;4.034;2022-07-10T06:59:53;8.00;;;1.70;;
31130;SDS011;20292;50.944;4.034;2022-07-10T07:02:19;5.32;;;1.70;;
31130;SDS011;20292;50.944;4.034;2022-07-10T07:04:44;5.10;;;2.00;;
31130;SDS011;20292;50.944;4.034;2022-07-10T07:07:11;5.28;;;2.05;;
31130;SDS011;20292;50.944;4.034;2022-07-10T07:09:37;6.70;;;2.10;;
31130;SDS011;20292;50.944;4.034;2022-07-10T07:12:03;5.78;;;2.00;;
31130;SDS011;20292;50.944;4.034;2022-07-10T07:14:30;4.97;;;1.75;;
31130;SDS011;20292;50.944;4.034;2022-07-10T07:16:55;5.93;;;1.65;;
31130;SDS011;20292;50.944;4.034;2022-07-10T07:19:35;5.97;;;1.58;;
31130;SDS011;20292;50.944;4.034;2022-07-10T07:22:20;5.07;;;1.88;;
31130;SDS011;20292;50.944;4.034;2022-07-10T07:25:05;5.20;;;1.92;;
31130;SDS011;20292;50.944;4.034;2022-07-10T07:27:33;5.50;;;1.90;;
31130;SDS011;20292;50.944;4.034;2022-07-10T07:30:06;6.25;;;2.03;;
31130;SDS011;20292;50.944;4.034;2022-07-10T07:32:35;5.63;;;1.90;;
31130;SDS011;20292;50.944;4.034;2022-07-10T07:35:02;5.25;;;1.70;;
31130;SDS011;20292;50.944;4.034;2022-07-10T07:37:44;7.43;;;2.38;;
31130;SDS011;20292;50.944;4.034;2022-07-10T07:40:12;7.00;;;2.15;;
31130;SDS011;20292;50.944;4.034;2022-07-10T07:42:39;4.13;;;1.90;;
31130;SDS011;20292;50.944;4.034;2022-07-10T07:45:06;7.10;;;2.17;;
31130;SDS011;20292;50.944;4.034;2022-07-10T07:47:42;5.95;;;1.95;;
31130;SDS011;20292;50.944;4.034;2022-07-10T07:50:09;7.65;;;2.13;;
31130;SDS011;20292;50.944;4.034;2022-07-10T07:52:36;4.82;;;1.88;;
31130;SDS011;20292;50.944;4.034;2022-07-10T07:55:01;5.07;;;1.95;;
31130;SDS011;20292;50.944;4.034;2022-07-10T07:57:27;5.40;;;1.70;;
31130;SDS011;20292;50.944;4.034;2022-07-10T07:59:53;7.65;;;1.70;;
31130;SDS011;20292;50.944;4.034;2022-07-10T08:02:18;3.55;;;1.73;;
31130;SDS011;20292;50.944;4.034;2022-07-10T08:04:44;4.60;;;1.50;;
31130;SDS011;20292;50.944;4.034;2022-07-10T08:07:09;6.07;;;1.77;;
31130;SDS011;20292;50.944;4.034;2022-07-10T08:09:35;5.55;;;2.00;;
31130;SDS011;20292;50.944;4.034;2022-07-10T08:12:01;5.63;;;1.70;;
31130;SDS011;20292;50.944;4.034;2022-07-10T08:14:26;4.43;;;1.73;;
31130;SDS011;20292;50.944;4.034;2022-07-10T08:16:52;4.40;;;1.77;;
31130;SDS011;20292;50.944;4.034;2022-07-10T08:19:18;3.95;;;1.70;;
31130;SDS011;20292;50.944;4.034;2022-07-10T08:21:43;6.70;;;1.73;;
31130;SDS011;20292;50.944;4.034;2022-07-10T08:24:09;7.18;;;1.70;;
31130;SDS011;20292;50.944;4.034;2022-07-10T08:26:35;3.85;;;1.58;;
31130;SDS011;20292;50.944;4.034;2022-07-10T08:29:00;14.32;;;2.67;;
31130;SDS011;20292;50.944;4.034;2022-07-10T08:31:26;5.88;;;1.80;;
31130;SDS011;20292;50.944;4.034;2022-07-10T08:33:52;6.18;;;1.83;;
31130;SDS011;20292;50.944;4.034;2022-07-10T08:36:17;5.28;;;1.73;;
31130;SDS011;20292;50.944;4.034;2022-07-10T08:38:43;3.15;;;1.40;;
31130;SDS011;20292;50.944;4.034;2022-07-10T08:41:09;7.82;;;1.77;;
31130;SDS011;20292;50.944;4.034;2022-07-10T08:43:37;5.40;;;1.88;;
31130;SDS011;20292;50.944;4.034;2022-07-10T08:46:04;3.63;;;1.88;;
31130;SDS011;20292;50.944;4.034;2022-07-10T08:48:31;3.20;;;1.70;;
31130;SDS011;20292;50.944;4.034;2022-07-10T08:50:59;6.57;;;1.75;;
31130;SDS011;20292;50.944;4.034;2022-07-10T08:53:29;2.40;;;1.55;;
31130;SDS011;20292;50.944;4.034;2022-07-10T08:55:57;3.40;;;1.83;;
31130;SDS011;20292;50.944;4.034;2022-07-10T08:58:23;4.38;;;1.80;;
31130;SDS011;20292;50.944;4.034;2022-07-10T09:00:51;4.68;;;1.80;;
31130;SDS011;20292;50.944;4.034;2022-07-10T09:03:16;5.32;;;1.92;;
31130;SDS011;20292;50.944;4.034;2022-07-10T09:05:42;5.18;;;2.00;;
31130;SDS011;20292;50.944;4.034;2022-07-10T09:08:27;5.03;;;2.15;;
31130;SDS011;20292;50.944;4.034;2022-07-10T09:13:51;6.83;;;2.43;;
31130;SDS011;20292;50.944;4.034;2022-07-10T09:16:25;5.13;;;2.00;;
31130;SDS011;20292;50.944;4.034;2022-07-10T09:18:52;4.25;;;2.10;;
31130;SDS011;20292;50.944;4.034;2022-07-10T09:21:18;3.42;;;1.88;;
31130;SDS011;20292;50.944;4.034;2022-07-10T09:23:44;5.40;;;2.35;;
31130;SDS011;20292;50.944;4.034;2022-07-10T09:26:10;6.45;;;1.95;;
31130;SDS011;20292;50.944;4.034;2022-07-10T09:28:37;4.18;;;1.88;;
31130;SDS011;20292;50.944;4.034;2022-07-10T09:31:02;5.45;;;2.00;;
31130;SDS011;20292;50.944;4.034;2022-07-10T09:33:30;4.82;;;1.85;;
31130;SDS011;20292;50.944;4.034;2022-07-10T09:36:00;5.32;;;1.95;;
31130;SDS011;20292;50.944;4.034;2022-07-10T09:38:47;4.20;;;1.77;;
31130;SDS011;20292;50.944;4.034;2022-07-10T09:41:19;4.35;;;1.77;;
31130;SDS011;20292;50.944;4.034;2022-07-10T09:44:03;6.72;;;1.85;;
31130;SDS011;20292;50.944;4.034;2022-07-10T09:46:36;3.78;;;1.70;;
31130;SDS011;20292;50.944;4.034;2022-07-10T09:49:13;4.68;;;1.80;;
31130;SDS011;20292;50.944;4.034;2022-07-10T09:51:46;5.00;;;2.20;;
31130;SDS011;20292;50.944;4.034;2022-07-10T09:54:11;6.20;;;1.70;;
31130;SDS011;20292;50.944;4.034;2022-07-10T09:56:45;4.93;;;1.88;;
31130;SDS011;20292;50.944;4.034;2022-07-10T09:59:13;4.82;;;1.90;;
31130;SDS011;20292;50.944;4.034;2022-07-10T10:01:49;2.63;;;1.70;;
31130;SDS011;20292;50.944;4.034;2022-07-10T10:04:20;7.50;;;1.88;;
31130;SDS011;20292;50.944;4.034;2022-07-10T10:06:50;3.95;;;1.70;;
31130;SDS011;20292;50.944;4.034;2022-07-10T10:12:20;5.88;;;2.30;;
31130;SDS011;20292;50.944;4.034;2022-07-10T10:14:56;3.88;;;1.67;;
31130;SDS011;20292;50.944;4.034;2022-07-10T10:17:24;4.45;;;1.63;;
31130;SDS011;20292;50.944;4.034;2022-07-10T10:19:52;6.30;;;2.03;;
31130;SDS011;20292;50.944;4.034;2022-07-10T10:22:43;5.10;;;1.70;;
31130;SDS011;20292;50.944;4.034;2022-07-10T10:25:10;4.20;;;1.85;;
31130;SDS011;20292;50.944;4.034;2022-07-10T10:27:38;5.28;;;1.60;;
31130;SDS011;20292;50.944;4.034;2022-07-10T10:30:04;6.18;;;2.00;;
31130;SDS011;20292;50.944;4.034;2022-07-10T10:32:30;4.18;;;2.00;;
31130;SDS011;20292;50.944;4.034;2022-07-10T10:34:57;7.18;;;1.90;;
31130;SDS011;20292;50.944;4.034;2022-07-10T10:37:38;5.00;;;2.15;;
31130;SDS011;20292;50.944;4.034;2022-07-10T10:40:06;6.55;;;1.52;;
31130;SDS011;20292;50.944;4.034;2022-07-10T10:42:35;4.28;;;1.98;;
31130;SDS011;20292;50.944;4.034;2022-07-10T10:48:04;6.22;;;1.80;;
31130;SDS011;20292;50.944;4.034;2022-07-10T10:50:48;4.47;;;1.70;;
31130;SDS011;20292;50.944;4.034;2022-07-10T10:53:25;4.40;;;1.70;;
31130;SDS011;20292;50.944;4.034;2022-07-10T11:09:27;4.55;;;1.75;;
31130;SDS011;20292;50.944;4.034;2022-07-10T11:12:12;3.63;;;1.85;;
31130;SDS011;20292;50.944;4.034;2022-07-10T11:14:38;6.53;;;2.13;;
31130;SDS011;20292;50.944;4.034;2022-07-10T11:17:07;2.50;;;1.60;;
31130;SDS011;20292;50.944;4.034;2022-07-10T11:19:36;4.95;;;1.67;;
31130;SDS011;20292;50.944;4.034;2022-07-10T11:30:50;4.60;;;1.88;;
31130;SDS011;20292;50.944;4.034;2022-07-10T11:33:17;4.10;;;1.70;;
31130;SDS011;20292;50.944;4.034;2022-07-10T11:35:45;3.85;;;1.77;;
31130;SDS011;20292;50.944;4.034;2022-07-10T11:38:17;9.48;;;2.35;;
31130;SDS011;20292;50.944;4.034;2022-07-10T11:40:44;4.88;;;1.90;;
31130;SDS011;20292;50.944;4.034;2022-07-10T11:43:10;5.22;;;2.00;;
31130;SDS011;20292;50.944;4.034;2022-07-10T11:45:39;5.88;;;2.13;;
31130;SDS011;20292;50.944;4.034;2022-07-10T11:48:05;3.15;;;1.73;;
31130;SDS011;20292;50.944;4.034;2022-07-10T11:50:37;5.95;;;1.98;;
31130;SDS011;20292;50.944;4.034;2022-07-10T11:53:03;3.50;;;1.90;;
31130;SDS011;20292;50.944;4.034;2022-07-10T11:55:30;4.07;;;1.67;;
31130;SDS011;20292;50.944;4.034;2022-07-10T11:57:57;3.75;;;1.80;;
31130;SDS011;20292;50.944;4.034;2022-07-10T12:02:51;4.18;;;1.50;;
31130;SDS011;20292;50.944;4.034;2022-07-10T12:05:37;3.75;;;1.58;;
31130;SDS011;20292;50.944;4.034;2022-07-10T12:08:04;5.70;;;1.70;;
31130;SDS011;20292;50.944;4.034;2022-07-10T12:10:31;4.03;;;1.77;;
31130;SDS011;20292;50.944;4.034;2022-07-10T12:13:07;8.32;;;2.55;;
31130;SDS011;20292;50.944;4.034;2022-07-10T12:15:36;7.15;;;2.30;;
31130;SDS011;20292;50.944;4.034;2022-07-10T12:18:15;6.75;;;2.25;;
31130;SDS011;20292;50.944;4.034;2022-07-10T12:20:43;4.30;;;2.00;;
31130;SDS011;20292;50.944;4.034;2022-07-10T12:23:13;6.97;;;2.10;;
31130;SDS011;20292;50.944;4.034;2022-07-10T12:25:43;4.45;;;2.10;;
31130;SDS011;20292;50.944;4.034;2022-07-10T12:28:11;3.75;;;1.80;;
31130;SDS011;20292;50.944;4.034;2022-07-10T12:30:40;3.80;;;2.20;;
31130;SDS011;20292;50.944;4.034;2022-07-10T12:33:08;6.18;;;2.40;;
31130;SDS011;20292;50.944;4.034;2022-07-10T12:38:18;4.88;;;2.38;;
31130;SDS011;20292;50.944;4.034;2022-07-10T12:40:47;3.85;;;1.73;;
31130;SDS011;20292;50.944;4.034;2022-07-10T12:43:26;6.03;;;1.70;;
31130;SDS011;20292;50.944;4.034;2022-07-10T12:48:40;5.57;;;2.35;;
31130;SDS011;20292;50.944;4.034;2022-07-10T12:51:23;5.10;;;2.13;;
31130;SDS011;20292;50.944;4.034;2022-07-10T12:53:53;4.20;;;1.92;;
31130;SDS011;20292;50.944;4.034;2022-07-10T12:56:26;4.05;;;1.73;;
31130;SDS011;20292;50.944;4.034;2022-07-10T12:58:53;5.20;;;1.67;;
31130;SDS011;20292;50.944;4.034;2022-07-10T13:01:18;2.35;;;1.38;;
31130;SDS011;20292;50.944;4.034;2022-07-10T13:03:44;7.88;;;1.70;;
31130;SDS011;20292;50.944;4.034;2022-07-10T13:06:26;2.53;;;1.63;;
31130;SDS011;20292;50.944;4.034;2022-07-10T13:08:53;4.50;;;1.80;;
31130;SDS011;20292;50.944;4.034;2022-07-10T13:11:18;4.30;;;2.03;;
31130;SDS011;20292;50.944;4.034;2022-07-10T13:13:44;4.05;;;1.40;;
31130;SDS011;20292;50.944;4.034;2022-07-10T13:16:09;2.03;;;1.20;;
31130;SDS011;20292;50.944;4.034;2022-07-10T13:18:35;1.42;;;1.17;;
31130;SDS011;20292;50.944;4.034;2022-07-10T13:21:01;5.95;;;1.77;;
31130;SDS011;20292;50.944;4.034;2022-07-10T13:23:28;3.38;;;1.50;;
31130;SDS011;20292;50.944;4.034;2022-07-10T13:25:55;2.67;;;1.40;;
31130;SDS011;20292;50.944;4.034;2022-07-10T13:28:21;5.80;;;1.92;;
31130;SDS011;20292;50.944;4.034;2022-07-10T13:30:47;4.13;;;1.52;;
31130;SDS011;20292;50.944;4.034;2022-07-10T13:33:13;2.25;;;1.45;;
31130;SDS011;20292;50.944;4.034;2022-07-10T13:35:39;5.13;;;1.60;;
31130;SDS011;20292;50.944;4.034;2022-07-10T13:38:05;3.08;;;1.67;;
31130;SDS011;20292;50.944;4.034;2022-07-10T13:40:32;5.03;;;1.80;;
31130;SDS011;20292;50.944;4.034;2022-07-10T13:43:00;3.60;;;1.67;;
31130;SDS011;20292;50.944;4.034;2022-07-10T13:45:26;2.72;;;1.52;;
31130;SDS011;20292;50.944;4.034;2022-07-10T13:48:01;10.52;;;1.63;;
31130;SDS011;20292;50.944;4.034;2022-07-10T13:50:28;2.83;;;1.50;;
31130;SDS011;20292;50.944;4.034;2022-07-10T13:52:54;3.30;;;1.40;;
31130;SDS011;20292;50.944;4.034;2022-07-10T13:55:19;3.78;;;1.30;;
31130;SDS011;20292;50.944;4.034;2022-07-10T13:57:45;4.50;;;1.52;;
31130;SDS011;20292;50.944;4.034;2022-07-10T14:00:11;3.83;;;1.45;;
31130;SDS011;20292;50.944;4.034;2022-07-10T14:02:37;2.45;;;1.58;;
31130;SDS011;20292;50.944;4.034;2022-07-10T14:05:03;5.35;;;1.50;;
31130;SDS011;20292;50.944;4.034;2022-07-10T14:07:29;3.45;;;1.40;;
31130;SDS011;20292;50.944;4.034;2022-07-10T14:09:54;4.93;;;1.40;;
31130;SDS011;20292;50.944;4.034;2022-07-10T14:12:20;3.97;;;1.60;;
31130;SDS011;20292;50.944;4.034;2022-07-10T14:14:46;4.43;;;1.45;;
31130;SDS011;20292;50.944;4.034;2022-07-10T14:17:12;3.30;;;1.60;;
31130;SDS011;20292;50.944;4.034;2022-07-10T14:19:38;4.25;;;1.58;;
31130;SDS011;20292;50.944;4.034;2022-07-10T14:22:05;3.38;;;1.70;;
31130;SDS011;20292;50.944;4.034;2022-07-10T14:24:31;3.92;;;1.70;;
31130;SDS011;20292;50.944;4.034;2022-07-10T14:26:56;5.03;;;1.80;;
31130;SDS011;20292;50.944;4.034;2022-07-10T14:29:22;4.03;;;1.42;;
31130;SDS011;20292;50.944;4.034;2022-07-10T14:31:48;3.45;;;1.40;;
31130;SDS011;20292;50.944;4.034;2022-07-10T14:34:20;2.78;;;1.52;;
31130;SDS011;20292;50.944;4.034;2022-07-10T14:36:49;4.93;;;1.65;;
31130;SDS011;20292;50.944;4.034;2022-07-10T14:39:15;4.72;;;1.50;;
31130;SDS011;20292;50.944;4.034;2022-07-10T14:41:40;2.72;;;1.15;;
31130;SDS011;20292;50.944;4.034;2022-07-10T14:44:06;4.57;;;1.40;;
31130;SDS011;20292;50.944;4.034;2022-07-10T14:46:32;2.72;;;1.35;;
31130;SDS011;20292;50.944;4.034;2022-07-10T14:48:58;3.40;;;1.38;;
31130;SDS011;20292;50.944;4.034;2022-07-10T14:51:24;4.18;;;1.70;;
31130;SDS011;20292;50.944;4.034;2022-07-10T14:53:50;5.30;;;1.80;;
31130;SDS011;20292;50.944;4.034;2022-07-10T14:56:16;4.43;;;1.63;;
31130;SDS011;20292;50.944;4.034;2022-07-10T14:58:42;4.18;;;1.35;;
31130;SDS011;20292;50.944;4.034;2022-07-10T15:01:09;5.57;;;1.83;;
31130;SDS011;20292;50.944;4.034;2022-07-10T15:03:34;7.07;;;2.00;;
31130;SDS011;20292;50.944;4.034;2022-07-10T15:06:00;4.88;;;1.80;;
31130;SDS011;20292;50.944;4.034;2022-07-10T15:08:26;3.53;;;2.22;;
31130;SDS011;20292;50.944;4.034;2022-07-10T15:10:51;3.75;;;1.60;;
31130;SDS011;20292;50.944;4.034;2022-07-10T15:13:17;4.30;;;1.70;;
31130;SDS011;20292;50.944;4.034;2022-07-10T15:15:43;6.53;;;2.40;;
31130;SDS011;20292;50.944;4.034;2022-07-10T15:18:09;5.68;;;1.90;;
31130;SDS011;20292;50.944;4.034;2022-07-10T15:20:35;2.80;;;1.60;;
31130;SDS011;20292;50.944;4.034;2022-07-10T15:23:02;2.92;;;1.60;;
31130;SDS011;20292;50.944;4.034;2022-07-10T15:25:30;4.07;;;1.92;;
31130;SDS011;20292;50.944;4.034;2022-07-10T15:27:56;4.38;;;1.80;;